Weather at Phoenix Sky Harbor International Airport

Public forecast

Using degrees Fahrenheit for public forecast. Weather courtesy of forecast.io.

Current aviation weather report (METAR) for Phoenix Sky Harbor International Airport

Retrieved 2021/06/23 09:51 UTC (57 minutes ago):

KPHX 230951Z 31003KT 10SM SCT120 BKN210 BKN240 34/10 A2979 RMK AO2 SLP063 T03390100

Aviation forecast (TAF) for Phoenix Sky Harbor International Airport

Retrieved 2021/06/23 06:22 UTC (4 hours ago):

TAF KPHX 230520Z 2306/2412 07005KT P6SM VCSH BKN100 BKN150 FM231500 13005KT P6SM BKN100 BKN150 FM231900 26005KT P6SM SCT100 BKN150 PROB30 2320/2324 -TSRA BKN080CB